Time;durP1;ratioP1;P1;durP2;ratioP2;P2;SDS_P1;SDS_P2;PMS_P1;PMS_P2;Temp;Humidity;BMP_temperature;BMP_pressure;BME280_temperature;BME280_humidity;BME280_pressure;Samples;Min_cycle;Max_cycle;Signal;HPM_P1;HPM_P2
2023/10/29 00:02:06;;;;;;;1999.90;999.90;;;12.40;99.90;;;;;;5097698;28;20500;-72
2023/10/29 00:04:38;;;;;;;1999.90;999.90;;;12.30;99.90;;;;;;5097770;28;20122;-71
2023/10/29 00:07:03;;;;;;;1999.90;999.90;;;12.40;99.90;;;;;;5097279;28;20033;-71
2023/10/29 00:09:29;;;;;;;1999.90;999.90;;;12.30;99.90;;;;;;5078829;28;20041;-72
2023/10/29 00:11:56;;;;;;;1999.90;999.90;;;12.30;99.90;;;;;;5097616;28;20119;-71
2023/10/29 00:14:22;;;;;;;1999.90;999.90;;;12.30;99.90;;;;;;5097403;28;20154;-72
2023/10/29 00:16:47;;;;;;;1999.90;999.90;;;12.30;99.90;;;;;;5097288;28;20033;-72
2023/10/29 00:19:13;;;;;;;1999.90;999.90;;;12.30;99.90;;;;;;5078895;28;20040;-71
2023/10/29 00:21:38;;;;;;;1999.90;999.90;;;12.20;99.90;;;;;;5078958;28;20498;-72
2023/10/29 00:24:04;;;;;;;1999.90;999.90;;;12.30;99.90;;;;;;5097442;28;20032;-71
2023/10/29 00:26:30;;;;;;;1999.90;999.90;;;12.30;99.90;;;;;;5096942;28;20028;-72
2023/10/29 00:28:55;;;;;;;1999.90;999.90;;;12.40;99.90;;;;;;5097306;28;20104;-71
2023/10/29 00:31:21;;;;;;;1999.90;999.90;;;12.50;99.90;;;;;;5078794;28;20032;-72
2023/10/29 00:33:47;;;;;;;1999.90;999.90;;;12.40;99.90;;;;;;5097169;28;20047;-71
2023/10/29 00:36:13;;;;;;;1999.90;999.90;;;12.40;99.90;;;;;;5097028;28;20029;-74
2023/10/29 00:38:38;;;;;;;1999.90;999.90;;;12.50;99.90;;;;;;5078427;28;20055;-71
2023/10/29 00:41:04;;;;;;;1999.90;999.90;;;12.50;99.90;;;;;;5097150;28;20036;-71
2023/10/29 00:46:06;;;;;;;1999.90;999.90;;;12.60;99.90;;;;;;5093615;28;20033;-74
2023/10/29 00:48:35;;;;;;;1999.90;999.90;;;12.60;99.90;;;;;;5096895;28;20465;-73
2023/10/29 00:51:01;;;;;;;1999.90;999.90;;;12.60;99.90;;;;;;5096817;28;20024;-71
2023/10/29 00:53:28;;;;;;;1999.90;999.90;;;12.60;99.90;;;;;;5096803;28;20043;-71
2023/10/29 00:55:54;;;;;;;1999.90;999.90;;;12.60;99.90;;;;;;5096756;28;20119;-72
2023/10/29 00:58:22;;;;;;;1999.90;999.90;;;12.60;99.90;;;;;;5096482;28;20036;-71
2023/10/29 01:00:48;;;;;;;1999.90;999.90;;;12.50;99.90;;;;;;5096688;28;20119;-74
2023/10/29 01:03:14;;;;;;;1999.90;999.90;;;12.50;99.90;;;;;;5096828;28;20514;-71
2023/10/29 01:05:39;;;;;;;1999.90;999.90;;;12.60;99.90;;;;;;5096629;28;20028;-74
2023/10/29 01:08:07;;;;;;;1999.90;999.90;;;12.80;99.90;;;;;;5096434;28;20107;-71
2023/10/29 01:10:33;;;;;;;1999.90;999.90;;;12.80;99.90;;;;;;5096734;28;20031;-71
2023/10/29 01:12:58;;;;;;;1999.90;999.90;;;12.80;99.90;;;;;;5078175;28;20044;-72
2023/10/29 01:15:24;;;;;;;1999.90;999.90;;;12.90;99.90;;;;;;5096612;28;20077;-71
2023/10/29 01:17:50;;;;;;;1999.90;999.90;;;13.00;99.90;;;;;;5096041;28;20036;-71
2023/10/29 01:20:15;;;;;;;1999.90;999.90;;;13.00;99.90;;;;;;5096627;28;20040;-71
2023/10/29 01:22:41;;;;;;;1999.90;999.90;;;13.10;99.90;;;;;;5096519;28;20097;-71
2023/10/29 01:25:09;;;;;;;1999.90;999.90;;;13.20;99.90;;;;;;5096512;28;20028;-71
2023/10/29 01:27:36;;;;;;;1999.90;999.90;;;13.10;99.90;;;;;;5077416;28;20071;-71
2023/10/29 01:30:02;;;;;;;1999.90;999.90;;;13.10;99.90;;;;;;5096369;28;20040;-71
2023/10/29 01:32:28;;;;;;;1999.90;999.90;;;13.20;99.90;;;;;;5096388;28;20032;-71
2023/10/29 01:34:54;;;;;;;1999.90;999.90;;;13.20;99.90;;;;;;5096298;28;20934;-71
2023/10/29 01:37:20;;;;;;;1999.90;999.90;;;13.30;99.90;;;;;;5096171;28;20041;-71
2023/10/29 01:39:46;;;;;;;1999.90;999.90;;;13.30;99.90;;;;;;5077478;28;20066;-71
2023/10/29 01:42:11;;;;;;;1999.90;999.90;;;13.30;99.90;;;;;;5096119;28;20066;-71
2023/10/29 01:44:37;;;;;;;1999.90;999.90;;;13.30;99.90;;;;;;5096223;28;20041;-71
2023/10/29 01:47:03;;;;;;;1999.90;999.90;;;13.30;99.90;;;;;;5095770;28;20112;-71
2023/10/29 01:49:28;;;;;;;1999.90;999.90;;;13.30;99.90;;;;;;5076805;28;20032;-71
2023/10/29 01:51:54;;;;;;;1999.90;999.90;;;13.30;99.90;;;;;;5095860;28;20466;-71
2023/10/29 01:54:21;;;;;;;1999.90;999.90;;;13.40;99.90;;;;;;5096102;28;20498;-71
2023/10/29 01:56:46;;;;;;;1999.90;999.90;;;13.40;99.90;;;;;;5095654;28;20119;-71
2023/10/29 01:59:14;;;;;;;1999.90;999.90;;;13.40;99.90;;;;;;5095493;28;20035;-74
2023/10/29 02:01:40;;;;;;;1999.90;999.90;;;13.40;99.90;;;;;;5095803;28;20028;-71
2023/10/29 02:04:12;;;;;;;1999.90;999.90;;;13.30;99.90;;;;;;5095305;28;20037;-71
2023/10/29 02:06:41;;;;;;;1999.90;999.90;;;13.30;99.90;;;;;;5095407;28;20082;-71
2023/10/29 02:09:12;;;;;;;1999.90;999.90;;;13.40;99.90;;;;;;5095507;28;20494;-71
2023/10/29 02:11:38;;;;;;;1999.90;999.90;;;13.30;99.90;;;;;;5095777;28;20032;-72
2023/10/29 02:14:05;;;;;;;1999.90;999.90;;;13.40;99.90;;;;;;5095555;28;20492;-71
2023/10/29 02:16:30;;;;;;;1999.90;999.90;;;13.40;99.90;;;;;;5095330;28;20585;-71
2023/10/29 02:18:56;;;;;;;1999.90;999.90;;;13.40;99.90;;;;;;5077056;28;20046;-72
2023/10/29 02:21:23;;;;;;;1999.90;999.90;;;13.40;99.90;;;;;;5095449;28;20049;-73
2023/10/29 02:23:49;;;;;;;1999.90;999.90;;;13.40;99.90;;;;;;5095416;28;20519;-71
2023/10/29 02:26:15;;;;;;;1999.90;999.90;;;13.40;99.90;;;;;;5095081;28;20498;-71
2023/10/29 02:28:41;;;;;;;1999.90;999.90;;;13.40;99.90;;;;;;5095318;28;20111;-71
2023/10/29 02:31:06;;;;;;;1999.90;999.90;;;13.20;99.90;;;;;;5095377;28;20099;-72
2023/10/29 02:33:32;;;;;;;1999.90;999.90;;;13.30;99.90;;;;;;5095359;28;20111;-71
2023/10/29 02:35:58;;;;;;;1999.90;999.90;;;13.40;99.90;;;;;;5094746;28;20058;-71
2023/10/29 02:38:23;;;;;;;1999.90;999.90;;;13.50;99.90;;;;;;5094561;28;20036;-71
2023/10/29 02:40:49;;;;;;;1999.90;999.90;;;13.50;99.90;;;;;;5095247;28;20028;-74
2023/10/29 02:43:16;;;;;;;1999.90;999.90;;;13.50;99.90;;;;;;5095210;28;20032;-72
2023/10/29 02:45:42;;;;;;;1999.90;999.90;;;13.70;99.90;;;;;;5094953;28;20102;-71
2023/10/29 02:48:08;;;;;;;1999.90;999.90;;;13.80;99.90;;;;;;5094731;28;20037;-72
2023/10/29 02:50:36;;;;;;;1999.90;999.90;;;13.80;99.90;;;;;;5094434;28;20035;-72
2023/10/29 02:53:02;;;;;;;1999.90;999.90;;;13.70;99.90;;;;;;5094828;28;20386;-72
2023/10/29 02:55:27;;;;;;;1999.90;999.90;;;13.70;99.90;;;;;;5095041;28;20087;-71
2023/10/29 02:57:53;;;;;;;1999.90;999.90;;;13.80;99.90;;;;;;5076069;28;20081;-72
2023/10/29 03:00:18;;;;;;;1999.90;999.90;;;13.70;99.90;;;;;;5094928;28;20036;-73
2023/10/29 03:02:44;;;;;;;1999.90;999.90;;;13.70;99.90;;;;;;5095016;28;20086;-71
2023/10/29 03:05:11;;;;;;;1999.90;999.90;;;13.70;99.90;;;;;;5094977;28;20036;-71
2023/10/29 03:07:37;;;;;;;1999.90;999.90;;;13.80;99.90;;;;;;5075996;28;20125;-71
2023/10/29 03:10:04;;;;;;;1999.90;999.90;;;13.80;99.90;;;;;;5094874;28;20525;-71
2023/10/29 03:12:30;;;;;;;1999.90;999.90;;;13.80;99.90;;;;;;5094725;28;20032;-72
2023/10/29 03:14:55;;;;;;;1999.90;999.90;;;13.80;99.90;;;;;;5094640;28;20036;-73
2023/10/29 03:17:21;;;;;;;1999.90;999.90;;;13.70;99.90;;;;;;5093439;28;20029;-72
2023/10/29 03:19:47;;;;;;;1999.90;999.90;;;13.80;99.90;;;;;;5094629;28;20040;-71
2023/10/29 03:22:13;;;;;;;1999.90;999.90;;;13.70;99.90;;;;;;5095002;28;20035;-71
2023/10/29 03:24:39;;;;;;;1999.90;999.90;;;13.70;99.90;;;;;;5094614;28;20311;-73
2023/10/29 03:27:04;;;;;;;1999.90;999.90;;;13.70;99.90;;;;;;5094354;28;20153;-73
2023/10/29 03:29:30;;;;;;;1999.90;999.90;;;13.60;99.90;;;;;;5094340;28;20036;-71
2023/10/29 03:31:55;;;;;;;1999.90;999.90;;;13.60;99.90;;;;;;5076138;28;20087;-71
2023/10/29 03:34:21;;;;;;;1999.90;999.90;;;13.70;99.90;;;;;;5094113;28;20076;-72
2023/10/29 03:36:46;;;;;;;1999.90;999.90;;;13.70;99.90;;;;;;5094263;28;20033;-71
2023/10/29 03:39:12;;;;;;;1999.90;999.90;;;13.70;99.90;;;;;;5093906;28;20429;-71
2023/10/29 03:41:37;;;;;;;1999.90;999.90;;;13.80;99.90;;;;;;5094509;28;20043;-71
2023/10/29 03:44:03;;;;;;;1999.90;999.90;;;13.90;99.90;;;;;;5094441;28;20036;-72
2023/10/29 03:46:29;;;;;;;1999.90;999.90;;;14.00;99.90;;;;;;5094178;28;20032;-71
2023/10/29 03:48:55;;;;;;;1999.90;999.90;;;13.80;99.90;;;;;;5094066;28;20059;-72
2023/10/29 03:51:20;;;;;;;1999.90;999.90;;;13.90;99.90;;;;;;5094320;28;20055;-72
2023/10/29 03:53:46;;;;;;;1999.90;999.90;;;14.00;99.90;;;;;;5075616;28;20049;-71
2023/10/29 03:56:12;;;;;;;1999.90;999.90;;;13.90;99.90;;;;;;5094048;28;20021;-71
2023/10/29 03:58:38;;;;;;;1999.90;999.90;;;14.00;99.90;;;;;;5093851;28;20033;-71
2023/10/29 04:01:03;;;;;;;1999.90;999.90;;;14.20;99.90;;;;;;5094081;28;20486;-71
2023/10/29 04:03:29;;;;;;;1999.90;999.90;;;14.10;99.90;;;;;;5094200;28;20171;-73
2023/10/29 04:05:55;;;;;;;1999.90;999.90;;;14.10;99.90;;;;;;5093871;28;20073;-71
2023/10/29 04:08:21;;;;;;;1999.90;999.90;;;14.00;99.90;;;;;;5093817;28;20033;-71
2023/10/29 04:10:46;;;;;;;1999.90;999.90;;;14.00;99.90;;;;;;5094091;28;20028;-72
2023/10/29 04:13:12;;;;;;;1999.90;999.90;;;14.00;99.90;;;;;;5093842;28;20182;-72
2023/10/29 04:15:38;;;;;;;1999.90;999.90;;;14.00;99.90;;;;;;5093970;28;20060;-74
2023/10/29 04:18:03;;;;;;;1999.90;999.90;;;13.90;99.90;;;;;;5093698;28;20086;-71
2023/10/29 04:20:29;;;;;;;1999.90;999.90;;;13.80;99.90;;;;;;5093980;28;20029;-71
2023/10/29 04:22:55;;;;;;;1999.90;999.90;;;13.70;99.90;;;;;;5093924;28;20036;-72
2023/10/29 04:25:20;;;;;;;1999.90;999.90;;;13.60;99.90;;;;;;5093870;28;20024;-73
2023/10/29 04:27:46;;;;;;;1999.90;999.90;;;13.50;99.90;;;;;;5076262;28;20033;-72
2023/10/29 04:30:11;;;;;;;1999.90;999.90;;;13.40;99.90;;;;;;5097111;28;20025;-72
2023/10/29 04:32:37;;;;;;;1999.90;999.90;;;13.40;99.90;;;;;;5097498;28;20040;-71
2023/10/29 04:35:03;;;;;;;1999.90;999.90;;;13.50;99.90;;;;;;5097098;28;20060;-71
2023/10/29 04:37:28;;;;;;;1999.90;999.90;;;13.50;99.90;;;;;;5096682;28;20052;-71
2023/10/29 04:39:54;;;;;;;1999.90;999.90;;;13.50;99.90;;;;;;5097233;28;20470;-71
2023/10/29 04:42:19;;;;;;;1999.90;999.90;;;13.50;99.90;;;;;;5097094;28;20036;-72
2023/10/29 04:44:45;;;;;;;1999.90;999.90;;;13.50;99.90;;;;;;5097104;28;20036;-72
2023/10/29 04:47:11;;;;;;;1999.90;999.90;;;13.40;99.90;;;;;;5096590;28;20025;-72
2023/10/29 04:49:37;;;;;;;1999.90;999.90;;;13.30;99.90;;;;;;5096993;28;20035;-72
2023/10/29 04:52:02;;;;;;;1999.90;999.90;;;13.30;99.90;;;;;;5096995;28;20039;-72
2023/10/29 04:54:28;;;;;;;1999.90;999.90;;;13.20;99.90;;;;;;5078426;28;20080;-71
2023/10/29 04:56:53;;;;;;;1999.90;999.90;;;13.30;99.90;;;;;;5096724;28;20381;-71
2023/10/29 04:59:19;;;;;;;1999.90;999.90;;;13.30;99.90;;;;;;5096706;28;20063;-72
2023/10/29 05:01:44;;;;;;;1999.90;999.90;;;13.20;99.90;;;;;;5078342;28;20028;-72
2023/10/29 05:04:10;;;;;;;1999.90;999.90;;;13.20;99.90;;;;;;5096855;28;20086;-69
2023/10/29 05:06:36;;;;;;;1999.90;999.90;;;13.20;99.90;;;;;;5096563;28;20112;-69
2023/10/29 05:09:01;;;;;;;1999.90;999.90;;;13.10;99.90;;;;;;5096660;28;20037;-69
2023/10/29 05:11:27;;;;;;;1999.90;999.90;;;13.10;99.90;;;;;;5096685;28;20044;-69
2023/10/29 05:13:52;;;;;;;1999.90;999.90;;;13.10;99.90;;;;;;5096703;28;20075;-69
2023/10/29 05:16:20;;;;;;;1999.90;999.90;;;13.10;99.90;;;;;;5078003;28;20051;-71
2023/10/29 05:18:45;;;;;;;1999.90;999.90;;;13.00;99.90;;;;;;5096379;28;20061;-69
2023/10/29 05:21:11;;;;;;;1999.90;999.90;;;12.90;99.90;;;;;;5096747;28;20521;-69
2023/10/29 05:23:38;;;;;;;1999.90;999.90;;;12.90;99.90;;;;;;5096539;28;20386;-70
2023/10/29 05:26:04;;;;;;;1999.90;999.90;;;12.90;99.90;;;;;;5096148;28;20530;-69
2023/10/29 05:28:29;;;;;;;1999.90;999.90;;;13.00;99.90;;;;;;5096299;28;20111;-69
2023/10/29 05:30:55;;;;;;;1999.90;999.90;;;13.00;99.90;;;;;;5096211;28;20039;-72
2023/10/29 05:33:20;;;;;;;1999.90;999.90;;;13.00;99.90;;;;;;5096146;28;20123;-69
2023/10/29 05:35:46;;;;;;;1999.90;999.90;;;12.90;99.90;;;;;;5095829;28;20436;-69
2023/10/29 05:38:12;;;;;;;1999.90;999.90;;;12.80;99.90;;;;;;5116439;22;20049;-71
2023/10/29 05:40:38;;;;;;;1999.90;999.90;;;12.80;99.90;;;;;;5075132;28;20045;-71
2023/10/29 05:43:03;;;;;;;1999.90;999.90;;;12.70;99.90;;;;;;5075724;28;20088;-71
2023/10/29 05:45:29;;;;;;;1999.90;999.90;;;12.70;99.90;;;;;;5075657;28;20044;-71
2023/10/29 05:47:56;;;;;;;1999.90;999.90;;;12.70;99.90;;;;;;5075261;28;20108;-71
2023/10/29 05:50:25;;;;;;;1999.90;999.90;;;12.70;99.90;;;;;;5075737;28;20044;-72
2023/10/29 05:52:50;;;;;;;1999.90;999.90;;;12.60;99.90;;;;;;5075431;28;20554;-72
2023/10/29 05:55:18;;;;;;;1999.90;999.90;;;12.60;99.90;;;;;;5057438;28;20037;-72
2023/10/29 05:57:44;;;;;;;1999.90;999.90;;;12.60;99.90;;;;;;5075399;28;20115;-72
2023/10/29 06:00:11;;;;;;;1999.90;999.90;;;12.50;99.90;;;;;;5057154;28;20194;-72
2023/10/29 06:02:38;;;;;;;1999.90;999.90;;;12.50;99.90;;;;;;5075363;28;20025;-72
2023/10/29 06:05:05;;;;;;;1999.90;999.90;;;12.50;99.90;;;;;;5075376;28;20025;-72
2023/10/29 06:07:30;;;;;;;1999.90;999.90;;;12.40;99.90;;;;;;5075196;28;20064;-72
2023/10/29 06:09:56;;;;;;;1999.90;999.90;;;12.40;99.90;;;;;;5075299;28;20115;-72
2023/10/29 06:12:22;;;;;;;1999.90;999.90;;;12.40;99.90;;;;;;5075581;28;20486;-72
2023/10/29 06:14:48;;;;;;;1999.90;999.90;;;12.40;99.90;;;;;;5075384;28;20075;-72
2023/10/29 06:17:13;;;;;;;1999.90;999.90;;;12.50;99.90;;;;;;5075121;28;20426;-72
2023/10/29 06:19:39;;;;;;;1999.90;999.90;;;12.60;99.90;;;;;;5075306;28;20447;-72
2023/10/29 06:22:10;;;;;;;1999.90;999.90;;;12.60;99.90;;;;;;5075458;28;20028;-72
2023/10/29 06:24:35;;;;;;;1999.90;999.90;;;12.70;99.90;;;;;;5075402;28;20524;-72
2023/10/29 06:27:02;;;;;;;1999.90;999.90;;;12.60;99.90;;;;;;5075130;28;20088;-72
2023/10/29 06:29:28;;;;;;;1999.90;999.90;;;12.60;99.90;;;;;;5075024;28;20048;-72
2023/10/29 06:31:53;;;;;;;1999.90;999.90;;;12.60;99.90;;;;;;5056649;28;20036;-72
2023/10/29 06:34:21;;;;;;;1999.90;999.90;;;12.60;99.90;;;;;;5075063;28;20048;-73
2023/10/29 06:36:46;;;;;;;1999.90;999.90;;;12.60;99.90;;;;;;5074595;28;20025;-73
2023/10/29 06:39:12;;;;;;;1999.90;999.90;;;12.70;99.90;;;;;;5074593;28;20056;-73
2023/10/29 06:41:37;;;;;;;1999.90;999.90;;;12.60;99.90;;;;;;5075161;28;20087;-72
2023/10/29 06:44:03;;;;;;;1999.90;999.90;;;12.60;99.90;;;;;;5075006;28;20102;-72
2023/10/29 06:46:30;;;;;;;1999.90;999.90;;;12.70;99.90;;;;;;5056290;28;20544;-72
2023/10/29 06:48:56;;;;;;;1999.90;999.90;;;12.70;99.90;;;;;;5055829;28;20098;-72
2023/10/29 06:51:21;;;;;;;1999.90;999.90;;;12.70;99.90;;;;;;5074757;28;20075;-72
2023/10/29 06:53:47;;;;;;;1999.90;999.90;;;12.60;99.90;;;;;;5056708;28;20068;-74
2023/10/29 06:56:13;;;;;;;1999.90;999.90;;;12.70;99.90;;;;;;5056274;28;20120;-75
2023/10/29 06:58:38;;;;;;;1999.90;999.90;;;12.80;99.90;;;;;;5056483;28;20044;-74
2023/10/29 07:01:11;;;;;;;1999.90;999.90;;;12.90;99.90;;;;;;5057259;28;20029;-74
2023/10/29 07:03:37;;;;;;;1999.90;999.90;;;13.00;99.90;;;;;;5074666;28;20420;-75
2023/10/29 07:06:08;;;;;;;1999.90;999.90;;;13.10;99.90;;;;;;5055870;28;20456;-77
2023/10/29 07:08:34;;;;;;;1999.90;999.90;;;13.20;99.90;;;;;;5056097;28;20040;-73
2023/10/29 07:11:01;;;;;;;1999.90;999.90;;;13.30;99.90;;;;;;5074150;28;20800;-75
2023/10/29 07:13:26;;;;;;;1999.90;999.90;;;13.30;99.90;;;;;;5074695;28;20106;-74
2023/10/29 07:15:53;;;;;;;1999.90;999.90;;;13.40;99.90;;;;;;5056120;28;20510;-76
2023/10/29 07:18:19;;;;;;;1999.90;999.90;;;13.40;99.90;;;;;;5056178;28;20043;-76
2023/10/29 07:20:45;;;;;;;1999.90;999.90;;;13.40;99.90;;;;;;5073763;28;20466;-78
2023/10/29 07:23:12;;;;;;;1999.90;999.90;;;13.40;99.90;;;;;;5055847;28;20048;-77
2023/10/29 07:25:37;;;;;;;1999.90;999.90;;;13.40;99.90;;;;;;5056096;28;20033;-77
2023/10/29 07:28:03;;;;;;;1999.90;999.90;;;13.50;99.90;;;;;;5073844;28;20037;-75
2023/10/29 07:30:29;;;;;;;1999.90;999.90;;;13.40;99.90;;;;;;5074456;28;20048;-75
2023/10/29 07:32:55;;;;;;;1999.90;999.90;;;13.60;99.90;;;;;;5074325;28;20115;-75
2023/10/29 07:35:20;;;;;;;1999.90;999.90;;;13.60;99.90;;;;;;5074439;28;20393;-77
2023/10/29 07:37:46;;;;;;;1999.90;999.90;;;13.60;99.90;;;;;;5056291;28;20589;-76
2023/10/29 07:40:12;;;;;;;1999.90;999.90;;;13.60;99.90;;;;;;5074022;28;20437;-77
2023/10/29 07:42:38;;;;;;;1999.90;999.90;;;13.70;99.90;;;;;;5074583;28;20025;-79
2023/10/29 07:45:04;;;;;;;1999.90;999.90;;;13.80;99.90;;;;;;5057495;28;20509;-76
2023/10/29 07:47:31;;;;;;;1999.90;999.90;;;13.80;99.90;;;;;;5074350;28;20068;-79
2023/10/29 07:49:56;;;;;;;1999.90;999.90;;;13.90;99.90;;;;;;5055737;28;20037;-74
2023/10/29 07:52:22;;;;;;;1999.90;999.90;;;13.90;99.90;;;;;;5070924;28;20112;-76
2023/10/29 07:54:47;;;;;;;1999.90;999.90;;;13.90;99.90;;;;;;5036096;28;20033;-79
2023/10/29 07:57:13;;;;;;;1999.90;999.90;;;14.10;99.90;;;;;;5035841;28;20044;-77
2023/10/29 07:59:39;;;;;;;1999.90;999.90;;;14.10;99.90;;;;;;5036891;28;20044;-79
2023/10/29 08:02:05;;;;;;;1999.90;999.90;;;14.20;99.90;;;;;;5037903;28;20360;-74
2023/10/29 08:04:30;;;;;;;1999.90;999.90;;;14.20;99.90;;;;;;5039636;28;20103;-77
2023/10/29 08:06:56;;;;;;;1999.90;999.90;;;14.20;99.90;;;;;;5057255;28;20041;-78
2023/10/29 08:09:22;;;;;;;1999.90;999.90;;;14.30;99.90;;;;;;5056972;28;20069;-77
2023/10/29 08:11:48;;;;;;;1999.90;999.90;;;14.10;99.90;;;;;;5057321;28;20504;-74
2023/10/29 08:14:13;;;;;;;1999.90;999.90;;;14.10;99.90;;;;;;5058510;28;20041;-77
2023/10/29 08:16:41;;;;;;;1999.90;999.90;;;14.00;99.90;;;;;;5051177;28;20037;-76
2023/10/29 08:19:12;;;;;;;1999.90;999.90;;;14.00;99.90;;;;;;5076929;28;20491;-76
2023/10/29 08:21:37;;;;;;;1999.90;999.90;;;14.00;99.90;;;;;;5077299;28;20067;-75
2023/10/29 08:24:04;;;;;;;1999.90;999.90;;;14.00;99.90;;;;;;5078603;28;20025;-81
2023/10/29 08:26:31;;;;;;;1999.90;999.90;;;14.10;99.90;;;;;;5078610;28;20106;-77
2023/10/29 08:28:57;;;;;;;1999.90;999.90;;;14.10;99.90;;;;;;5060074;28;20037;-77
2023/10/29 08:31:22;;;;;;;1999.90;999.90;;;14.10;99.90;;;;;;5078681;28;20491;-78
2023/10/29 08:33:49;;;;;;;1999.90;999.90;;;14.00;99.90;;;;;;5082634;28;20127;-79
2023/10/29 08:36:17;;;;;;;1999.90;999.90;;;14.10;99.90;;;;;;5079234;28;20036;-76
2023/10/29 08:38:43;;;;;;;1999.90;999.90;;;14.00;99.90;;;;;;5077139;28;20501;-74
2023/10/29 08:41:13;;;;;;;1999.90;999.90;;;14.00;99.90;;;;;;5058451;28;20104;-75
2023/10/29 08:43:38;;;;;;;1999.90;999.90;;;14.00;99.90;;;;;;5058699;28;20032;-77
2023/10/29 08:46:04;;;;;;;1999.90;999.90;;;13.90;99.90;;;;;;5076730;28;20052;-75
2023/10/29 08:48:30;;;;;;;1999.90;999.90;;;13.90;99.90;;;;;;5076760;28;20067;-75
2023/10/29 08:50:57;;;;;;;1999.90;999.90;;;13.80;99.90;;;;;;5076745;28;20071;-75
2023/10/29 08:53:22;;;;;;;1999.90;999.90;;;13.80;99.90;;;;;;5077067;28;20502;-78
2023/10/29 08:55:48;;;;;;;1999.90;999.90;;;13.70;99.90;;;;;;5076338;28;20064;-75
2023/10/29 08:58:14;;;;;;;1999.90;999.90;;;13.60;99.90;;;;;;5076589;28;20453;-73
2023/10/29 09:00:40;;;;;;;1999.90;999.90;;;13.50;99.90;;;;;;5076303;28;20033;-75
2023/10/29 09:03:06;;;;;;;1999.90;999.90;;;13.40;99.90;;;;;;5076738;28;20029;-74
2023/10/29 09:05:31;;;;;;;1999.90;999.90;;;13.40;99.90;;;;;;5076422;28;20036;-78
2023/10/29 09:07:57;;;;;;;1999.90;999.90;;;13.40;99.90;;;;;;5075852;28;20029;-79
2023/10/29 09:10:22;;;;;;;1999.90;999.90;;;13.30;99.90;;;;;;5076929;28;20037;-73
2023/10/29 09:12:48;;;;;;;1999.90;999.90;;;13.40;99.90;;;;;;5076217;28;20025;-71
2023/10/29 09:15:15;;;;;;;1999.90;999.90;;;13.30;99.90;;;;;;5074887;28;20052;-71
2023/10/29 09:17:40;;;;;;;1999.90;999.90;;;13.30;99.90;;;;;;5075836;28;20538;-71
2023/10/29 09:20:07;;;;;;;1999.90;999.90;;;13.30;99.90;;;;;;5076011;28;20043;-71
2023/10/29 09:22:33;;;;;;;1999.90;999.90;;;13.20;99.90;;;;;;5076117;28;20466;-71
2023/10/29 09:24:59;;;;;;;1999.90;999.90;;;13.20;99.90;;;;;;5076212;28;20040;-74
2023/10/29 09:27:24;;;;;;;1999.90;999.90;;;13.30;99.90;;;;;;5075971;28;20029;-73
2023/10/29 09:29:50;;;;;;;1999.90;999.90;;;13.40;99.90;;;;;;5057524;28;20398;-73
2023/10/29 09:32:16;;;;;;;1999.90;999.90;;;13.40;99.90;;;;;;5075972;28;20112;-73
2023/10/29 09:34:42;;;;;;;1999.90;999.90;;;13.50;99.90;;;;;;5076061;28;20064;-75
2023/10/29 09:37:08;;;;;;;1999.90;999.90;;;13.50;99.90;;;;;;5075761;28;20029;-72
2023/10/29 09:39:33;;;;;;;1999.90;999.90;;;13.50;99.90;;;;;;5057303;28;20068;-73
2023/10/29 09:42:08;;;;;;;1999.90;999.90;;;13.50;99.90;;;;;;5076015;28;20104;-74
2023/10/29 09:44:34;;;;;;;1999.90;999.90;;;13.60;99.90;;;;;;5057245;28;20103;-74
2023/10/29 09:47:14;;;;;;;1999.90;999.90;;;13.60;99.90;;;;;;5057297;28;20517;-74
2023/10/29 09:49:40;;;;;;;1999.90;999.90;;;13.70;99.90;;;;;;5077335;28;20128;-77
2023/10/29 09:52:08;;;;;;;1999.90;999.90;;;13.70;99.90;;;;;;5059280;28;20066;-76
2023/10/29 09:54:33;;;;;;;1999.90;999.90;;;13.70;99.90;;;;;;5059233;28;20047;-74
2023/10/29 09:57:00;;;;;;;1999.90;999.90;;;13.70;99.90;;;;;;5058019;28;20033;-73
2023/10/29 09:59:25;;;;;;;1999.90;999.90;;;13.80;99.90;;;;;;5077865;28;20061;-79
2023/10/29 10:01:51;;;;;;;1999.90;999.90;;;13.80;99.90;;;;;;5077498;28;20451;-72
2023/10/29 10:04:17;;;;;;;1999.90;999.90;;;13.90;99.90;;;;;;5077053;28;20041;-72
2023/10/29 10:06:43;;;;;;;1999.90;999.90;;;13.90;99.90;;;;;;5076854;28;20029;-74
2023/10/29 10:09:10;;;;;;;1999.90;999.90;;;13.90;99.90;;;;;;5059222;28;20094;-72
2023/10/29 10:11:36;;;;;;;1999.90;999.90;;;13.90;99.90;;;;;;5077507;28;20029;-73
2023/10/29 10:14:01;;;;;;;1999.90;999.90;;;13.90;99.90;;;;;;5076791;28;20037;-75
2023/10/29 10:16:27;;;;;;;1999.90;999.90;;;13.90;99.90;;;;;;5076871;28;20029;-73
2023/10/29 10:18:59;;;;;;;1999.90;999.90;;;13.90;99.90;;;;;;5077237;28;20036;-79
2023/10/29 10:21:39;;;;;;;1999.90;999.90;;;14.00;99.90;;;;;;5077595;28;20789;-76
2023/10/29 10:24:05;;;;;;;1999.90;999.90;;;14.10;99.90;;;;;;5078282;28;20048;-74
2023/10/29 10:26:35;;;;;;;1999.90;999.90;;;14.20;99.90;;;;;;5076490;28;20033;-75
2023/10/29 10:29:03;;;;;;;1999.90;999.90;;;14.20;99.90;;;;;;5075917;28;20036;-72
2023/10/29 10:31:31;;;;;;;1999.90;999.90;;;14.10;99.90;;;;;;5075211;28;20461;-80
2023/10/29 10:34:17;;;;;;;1999.90;999.90;;;14.10;99.90;;;;;;5076008;28;20159;-74
2023/10/29 10:36:49;;;;;;;1999.90;999.90;;;14.10;99.90;;;;;;5075013;28;20036;-73
2023/10/29 10:39:15;;;;;;;1999.90;999.90;;;14.00;99.90;;;;;;5075001;28;20036;-73
2023/10/29 10:41:42;;;;;;;1999.90;999.90;;;14.00;99.90;;;;;;5076165;28;20037;-73
2023/10/29 10:44:12;;;;;;;1999.90;999.90;;;13.90;99.90;;;;;;5074780;28;20072;-74
2023/10/29 10:46:51;;;;;;;1999.90;999.90;;;13.90;99.90;;;;;;5074457;28;20028;-73
2023/10/29 10:49:18;;;;;;;1999.90;999.90;;;14.00;99.90;;;;;;5074850;28;20048;-73
2023/10/29 10:51:52;;;;;;;1999.90;999.90;;;14.20;99.90;;;;;;5074423;28;20036;-73
2023/10/29 10:54:19;;;;;;;1999.90;999.90;;;14.40;99.90;;;;;;5075370;28;20131;-74
2023/10/29 10:56:45;;;;;;;1999.90;999.90;;;14.50;99.90;;;;;;5074826;28;20029;-75
2023/10/29 10:59:11;;;;;;;1999.90;999.90;;;14.60;99.90;;;;;;5075507;28;20060;-80
2023/10/29 11:01:40;;;;;;;1999.90;999.90;;;14.70;99.90;;;;;;5075071;28;20071;-74
2023/10/29 11:04:08;;;;;;;1999.90;999.90;;;14.90;99.90;;;;;;5074555;28;20040;-73
2023/10/29 11:06:38;;;;;;;1999.90;999.90;;;15.10;99.90;;;;;;5075002;28;20528;-77
2023/10/29 11:09:06;;;;;;;1999.90;999.90;;;15.20;99.90;;;;;;5056953;28;20076;-74
2023/10/29 11:11:40;;;;;;;1999.90;999.90;;;15.20;99.90;;;;;;5074874;28;20160;-73
2023/10/29 11:14:14;;;;;;;1999.90;999.90;;;15.20;99.90;;;;;;5056134;28;20241;-74
2023/10/29 11:16:50;;;;;;;1999.90;999.90;;;15.40;99.90;;;;;;5074621;28;20390;-75
2023/10/29 11:19:43;;;;;;;1999.90;999.90;;;15.50;99.90;;;;;;5074157;28;20785;-74
2023/10/29 11:22:18;;;;;;;1999.90;999.90;;;15.70;99.90;;;;;;5075093;28;20036;-74
2023/10/29 11:25:04;;;;;;;1999.90;999.90;;;15.90;99.90;;;;;;5074579;28;20723;-74
2023/10/29 11:27:48;;;;;;;1999.90;999.90;;;15.90;99.90;;;;;;5055473;28;20152;-75
2023/10/29 11:30:20;;;;;;;1999.90;999.90;;;15.70;99.90;;;;;;5056209;28;20041;-74
2023/10/29 11:33:05;;;;;;;1999.90;999.90;;;15.60;99.90;;;;;;5074367;28;20025;-74
2023/10/29 11:35:31;;;;;;;1999.90;999.90;;;15.70;99.90;;;;;;5074696;28;20519;-74
2023/10/29 11:37:57;;;;;;;1999.90;999.90;;;15.90;99.90;;;;;;5057579;28;20037;-78
2023/10/29 11:40:22;;;;;;;1999.90;999.90;;;16.10;99.90;;;;;;5060407;28;20621;-76
2023/10/29 11:42:48;;;;;;;1999.90;999.90;;;16.30;99.90;;;;;;5081078;28;20123;-75
2023/10/29 11:45:27;;;;;;;1999.90;999.90;;;16.30;99.90;;;;;;5061827;28;20091;-78
2023/10/29 11:48:11;;;;;;;1999.90;999.90;;;16.30;99.90;;;;;;5079552;28;20120;-79
2023/10/29 11:50:38;;;;;;;1999.90;999.90;;;16.60;99.90;;;;;;5080483;28;20033;-79
2023/10/29 11:53:04;;;;;;;1999.90;999.90;;;16.70;99.90;;;;;;5079054;28;20036;-78
2023/10/29 11:55:42;;;;;;;1999.90;999.90;;;17.20;99.90;;;;;;5079829;28;20067;-78
2023/10/29 11:58:08;;;;;;;1999.90;999.90;;;17.50;99.90;;;;;;5062648;28;20029;-78
2023/10/29 12:00:40;;;;;;;1999.90;999.90;;;17.60;99.90;;;;;;5081882;28;20033;-80